Latest Coastal Weather Observations for Mardie

IDW60701

Issued at 9:43 pm WST Monday 4 May 2026 (issued every 10 minutes, with the page automatically refreshed every 10 minutes)

About coastal observations | Map of coastal stations | Coastal observations for WA | Marine services | Other Formats
Station Details ID: 005008 Name: MARDIE Lat: -21.19 Lon: 115.98 Height: 11.0 m
Data from the previous 72 hours. | See also: Recent months at Mardie
Date/Time
WST
Wind Sea
Height
m
Swell Vis
km
Cloud Weather Temp
°C
Press
MSL
hPa
Rain since
9am
mm
Dir  Spd
kts
Gust
kts
Height
m
Period
s
Dir
04/09:30pm S 5 5 - - - - - - - 22.4 1015.8 0.0
04/09:00pm SW 4 5 - - - - - - - 23.0 1016.0 0.0
04/08:30pm N 2 2 - - - - - - - 23.6 1015.8 0.0
04/08:00pm N 2 3 - - - - - - - 25.4 1015.6 0.0
04/07:30pm N 2 3 - - - - - - - 25.8 1015.3 0.0
04/07:00pm N 3 5 - - - - - - - 26.4 1015.1 0.0
04/06:30pm N 4 5 - - - - - - - 27.2 1014.9 0.0
04/06:00pm N 3 5 - - - - - - - 28.0 1014.6 0.0
04/05:30pm N 6 10 - - - - - - - 29.0 1014.3 0.0
04/05:00pm N 8 12 - - - - - - - 30.3 1014.0 0.0
04/04:30pm N 9 14 - - - - - - - 31.3 1013.9 0.0
04/04:00pm N 11 15 - - - - - - - 31.2 1013.5 0.0
04/03:30pm N 10 15 - - - - - - - 32.3 1013.5 0.0
04/03:00pm ESE 5 9 - - - - - - - 33.9 1013.7 0.0
04/02:30pm ENE 4 8 - - - - - - - 33.9 1013.9 0.0
04/02:00pm E 5 11 - - - - - - - 33.8 1014.1 0.0
04/01:30pm ENE 6 17 - - - - - - - 33.7 1014.4 0.0
04/01:00pm E 8 15 - - - - - - - 32.1 1015.0 0.0
04/12:30pm ENE 8 12 - - - - - - - 32.4 1015.6 0.0
04/12:00pm E 10 14 - - - - - - - 32.0 1016.1 0.0
04/11:30am ENE 10 15 - - - - - - - 31.6 1016.8 0.0
04/11:00am E 11 17 - - - - - - - 31.3 1017.2 0.0
04/10:30am E 12 16 - - - - - - - 29.8 1017.5 0.0
04/10:00am E 12 18 - - - - - - - 29.2 1017.8 0.0
04/09:30am E 15 19 - - - - - - - 27.6 1017.8 0.0
04/09:00am E 15 19 - - - - - - - 26.7 1017.7 0.0
04/08:30am E 14 17 - - - - - - - 25.6 1017.6 0.0
04/08:00am ESE 11 14 - - - - - - - 24.5 1017.6 0.0
04/07:30am ESE 9 11 - - - - - - - 22.7 1017.5 0.0
04/07:00am ESE 6 7 - - - - - - - 20.3 1017.0 0.0
04/06:30am ESE 6 7 - - - - - - - 20.1 1016.7 0.0
04/06:00am SE 6 7 - - - - - - - 19.4 1016.5 0.0
04/05:30am ESE 6 6 - - - - - - - 20.3 1016.2 0.0
04/05:00am E 7 9 - - - - - - - 21.4 1015.9 0.0
04/04:30am ESE 5 7 - - - - - - - 21.3 1015.8 0.0
04/04:00am SE 6 8 - - - - - - - 20.8 1015.8 0.0
04/03:30am SE 6 7 - - - - - - - 21.2 1015.8 0.0
04/03:00am SE 4 5 - - - - - - - 21.7 1015.8 0.0
04/02:30am ESE 7 9 - - - - - - - 22.0 1015.6 0.0
04/02:00am SE 6 7 - - - - - - - 21.9 1015.3 0.0
04/01:30am SE 6 7 - - - - - - - 22.2 1015.4 0.0
04/01:00am SE 6 7 - - - - - - - 22.4 1015.4 0.0
04/12:30am SSE 6 7 - - - - - - - 22.4 1015.5 0.0
04/12:00am SSE 5 6 - - - - - - - 22.0 1015.4 0.0
 
Date/Time
WST
Wind Sea
Height
m
Swell Vis
km
Cloud Weather Temp
°C
Press
MSL
hPa
Rain since
9am
mm
Dir  Spd
kts
Gust
kts
Height
m
Period
s
Dir
03/11:30pm SSE 5 6 - - - - - - - 22.1 1015.5 0.0
03/11:00pm SSE 4 5 - - - - - - - 22.4 1015.3 0.0
03/10:30pm SSE 4 5 - - - - - - - 22.5 1015.3 0.0
03/10:00pm ESE 3 4 - - - - - - - 22.7 1015.2 0.0
03/09:30pm N 1 2 - - - - - - - 23.9 1015.3 0.0
03/09:00pm N 3 5 - - - - - - - 24.7 1015.2 0.0
03/08:30pm N 5 6 - - - - - - - 25.2 1014.9 0.0
03/08:00pm N 4 5 - - - - - - - 25.6 1014.5 0.0
03/07:30pm NNE 5 6 - - - - - - - 26.1 1014.2 0.0
03/07:00pm NNE 5 7 - - - - - - - 26.7 1013.9 0.0
03/06:30pm N 7 9 - - - - - - - 27.3 1013.6 0.0
03/06:00pm N 7 11 - - - - - - - 27.9 1013.3 0.0
03/05:30pm NNE 10 12 - - - - - - - 28.9 1013.0 0.0
03/05:00pm NNE 10 14 - - - - - - - 30.0 1012.6 0.0
03/04:30pm N 9 13 - - - - - - - 30.9 1012.4 0.0
03/04:00pm N 10 14 - - - - - - - 31.5 1012.3 0.0
03/03:30pm NNE 11 15 - - - - - - - 32.1 1012.2 0.0
03/03:00pm N 11 15 - - - - - - - 32.3 1012.4 0.0
03/02:30pm N 10 14 - - - - - - - 32.5 1012.4 0.0
03/02:00pm NNE 9 15 - - - - - - - 32.9 1012.6 0.0
03/01:30pm NE 11 16 - - - - - - - 32.9 1012.9 0.0
03/01:00pm NNE 9 15 - - - - - - - 32.5 1013.1 0.0
03/12:30pm NE 10 15 - - - - - - - 32.2 1013.4 0.0
03/12:00pm ENE 10 15 - - - - - - - 31.9 1013.9 0.0
03/11:30am ENE 13 17 - - - - - - - 31.8 1014.5 0.0
03/11:00am ENE 13 18 - - - - - - - 30.8 1014.9 0.0
03/10:30am ENE 13 21 - - - - - - - 30.5 1015.3 0.0
03/10:00am E 12 16 - - - - - - - 29.5 1015.5 0.0
03/09:30am ENE 14 19 - - - - - - - 28.3 1015.4 0.0
03/09:00am E 14 18 - - - - - - - 27.4 1015.5 0.0
03/08:30am E 13 16 - - - - - - - 26.2 1015.3 0.0
03/08:00am E 12 15 - - - - - - - 25.3 1015.0 0.0
03/07:30am ESE 11 14 - - - - - - - 24.3 1014.6 0.0
03/07:00am E 9 11 - - - - - - - 23.9 1014.2 0.0
03/06:30am ESE 6 9 - - - - - - - 24.2 1013.8 0.0
03/06:00am ESE 7 9 - - - - - - - 24.3 1013.5 0.0
03/05:30am E 5 6 - - - - - - - 23.9 1013.1 0.0
03/05:00am E 4 5 - - - - - - - 23.9 1012.9 0.0
03/04:30am E 6 7 - - - - - - - 24.5 1012.7 0.0
03/04:00am ESE 5 7 - - - - - - - 24.3 1012.8 0.0
03/03:30am ESE 7 9 - - - - - - - 23.6 1012.7 0.0
03/03:00am E 5 6 - - - - - - - 23.1 1012.6 0.0
03/02:30am E 5 5 - - - - - - - 23.1 1012.6 0.0
03/02:00am ESE 4 4 - - - - - - - 23.1 1012.6 0.0
03/01:30am SE 4 5 - - - - - - - 23.1 1012.6 0.0
03/01:00am SE 5 5 - - - - - - - 23.1 1012.6 0.0
03/12:30am SE 4 4 - - - - - - - 23.2 1012.8 0.0
03/12:00am N 3 4 - - - - - - - 23.3 1012.9 0.0
 
Date/Time
WST
Wind Sea
Height
m
Swell Vis
km
Cloud Weather Temp
°C
Press
MSL
hPa
Rain since
9am
mm
Dir  Spd
kts
Gust
kts
Height
m
Period
s
Dir
02/11:30pm CALM 0 0 - - - - - - - 23.6 1013.0 0.0
02/11:00pm N 2 2 - - - - - - - 24.5 1012.9 0.0
02/10:30pm N 3 4 - - - - - - - 24.7 1012.9 0.0
02/10:00pm N 3 4 - - - - - - - 25.1 1013.0 0.0
02/09:30pm N 4 5 - - - - - - - 25.4 1013.0 0.0
02/09:00pm N 4 5 - - - - - - - 25.7 1012.8 0.0
02/08:30pm NNE 4 5 - - - - - - - 26.1 1012.4 0.0
02/08:00pm NNE 4 5 - - - - - - - 26.5 1012.1 0.0
02/07:30pm N 5 7 - - - - - - - 27.0 1011.8 0.0
02/07:00pm N 6 8 - - - - - - - 27.4 1011.4 0.0
02/06:30pm N 7 9 - - - - - - - 27.8 1011.1 0.0
02/06:00pm N 10 13 - - - - - - - 28.3 1010.8 0.0
02/05:30pm N 11 14 - - - - - - - 28.9 1010.5 0.0
02/05:00pm N 10 14 - - - - - - - 30.2 1010.3 0.0
02/04:30pm N 10 15 - - - - - - - 31.4 1010.1 0.0
02/04:00pm N 12 18 - - - - - - - 31.4 1009.9 0.0
02/03:30pm N 11 15 - - - - - - - 32.2 1010.0 0.0
02/03:00pm N 12 18 - - - - - - - 33.0 1009.9 0.0
02/02:30pm N 11 17 - - - - - - - 33.8 1010.0 0.0
02/02:00pm NE 9 15 - - - - - - - 34.8 1010.3 0.0
02/01:30pm NE 8 13 - - - - - - - 34.4 1010.3 0.0
02/01:00pm ENE 7 11 - - - - - - - 34.1 1010.8 0.0
02/12:30pm NE 8 13 - - - - - - - 33.4 1011.3 0.0
02/12:00pm ENE 9 15 - - - - - - - 34.2 1011.5 0.0
02/11:30am ENE 11 16 - - - - - - - 32.6 1012.0 0.0
02/11:00am ENE 12 16 - - - - - - - 32.7 1012.2 0.0
02/10:30am ENE 13 18 - - - - - - - 32.4 1012.7 0.0
02/10:00am ENE 13 17 - - - - - - - 31.5 1012.7 0.0
02/09:30am E 14 18 - - - - - - - 29.5 1012.7 0.0
02/09:00am ESE 12 16 - - - - - - - 28.7 1012.6 0.0
02/08:30am ESE 12 18 - - - - - - - 27.4 1012.3 0.0
02/08:00am SE 6 8 - - - - - - - 25.2 1012.1 0.0
02/07:30am SSE 4 5 - - - - - - - 22.9 1011.7 0.0
02/07:00am SSE 6 7 - - - - - - - 22.4 1011.2 0.0
02/06:30am SSE 7 7 - - - - - - - 22.2 1010.8 0.0
02/06:00am SSE 6 7 - - - - - - - 21.3 1010.5 0.0
02/05:30am SSE 6 6 - - - - - - - 21.1 1010.2 0.0
02/05:00am SE 6 7 - - - - - - - 21.4 1010.1 0.0
02/04:30am SSE 5 6 - - - - - - - 21.1 1010.2 0.0
02/04:00am SSE 6 7 - - - - - - - 21.9 1010.0 0.0
02/03:30am SSE 6 9 - - - - - - - 23.2 1010.2 0.0
02/03:00am S 7 9 - - - - - - - 23.1 1010.3 0.0
02/02:30am S 7 8 - - - - - - - 23.4 1010.4 0.0
02/02:00am S 7 8 - - - - - - - 22.5 1010.8 0.0
02/01:30am SSW 5 6 - - - - - - - 22.7 1011.0 0.0
02/01:00am SW 4 5 - - - - - - - 23.6 1011.0 0.0
02/12:30am SW 4 4 - - - - - - - 23.9 1011.1 0.0
02/12:00am SW 4 5 - - - - - - - 24.4 1011.3 0.0
 
Date/Time
WST
Wind Sea
Height
m
Swell Vis
km
Cloud Weather Temp
°C
Press
MSL
hPa
Rain since
9am
mm
Dir  Spd
kts
Gust
kts
Height
m
Period
s
Dir
01/11:30pm SW 5 6 - - - - - - - 24.9 1011.6 0.0
01/11:00pm W 3 4 - - - - - - - 25.2 1011.6 0.0
01/10:30pm WNW 3 4 - - - - - - - 25.7 1011.6 0.0
01/10:00pm NW 3 4 - - - - - - - 25.9 1011.7 0.0

Other formats

Comma delimited format used in spreadsheet applications
http://www.bom.gov.au/fwo/IDW60701/IDW60701.94306.axf

JavaScript Object Notation format (JSON) in row-major order
http://www.bom.gov.au/fwo/IDW60701/IDW60701.94306.json

Data quality

Most of these data are generated automatically and are frequently updated. Quality checks on data are not normally performed. It is possible for incorrect values to appear. Refer to information at About Latest Weather Observations and please check the disclaimer before using these data.